Time;durP1;ratioP1;P1;durP2;ratioP2;P2;SDS_P1;SDS_P2;PMS_P1;PMS_P2;Temp;Humidity;BMP_temperature;BMP_pressure;BME280_temperature;BME280_humidity;BME280_pressure;Samples;Min_cycle;Max_cycle;Signal;HPM_P1;HPM_P2
2023/05/15 00:01:42;;;;;;;17.95;12.20;;;16.90;74.30;;;16.34;59.72;100339.53;5009482;28;20077;-89
2023/05/15 00:04:10;;;;;;;18.60;12.93;;;16.90;74.50;;;16.33;60.09;100332.53;5009936;28;20046;-87
2023/05/15 00:06:37;;;;;;;17.98;14.38;;;16.90;74.70;;;16.33;60.32;100331.72;5004678;28;20049;-89
2023/05/15 00:09:07;;;;;;;21.83;15.80;;;16.90;75.10;;;16.34;60.72;100336.03;5009621;28;20607;-88
2023/05/15 00:11:34;;;;;;;25.90;16.50;;;16.90;75.50;;;16.34;61.40;100339.53;5004436;28;20046;-88
2023/05/15 00:14:01;;;;;;;21.50;16.45;;;17.00;76.00;;;16.34;61.06;100336.84;5010147;28;20053;-88
2023/05/15 00:16:29;;;;;;;24.35;17.15;;;17.00;75.80;;;16.34;61.66;100336.84;5009245;28;20494;-88
2023/05/15 00:18:56;;;;;;;26.85;17.27;;;17.00;76.20;;;16.36;61.63;100340.09;5009695;28;20491;-88
2023/05/15 00:21:23;;;;;;;23.73;17.40;;;17.00;76.30;;;16.36;61.81;100328.53;5009374;28;20502;-88
2023/05/15 00:23:52;;;;;;;27.55;18.08;;;17.00;76.60;;;16.36;61.92;100337.41;5008860;28;20057;-88
2023/05/15 00:26:24;;;;;;;27.27;18.05;;;17.00;76.40;;;16.36;62.03;100326.66;5007605;28;20045;-89
2023/05/15 00:28:51;;;;;;;27.83;18.27;;;17.00;76.80;;;16.35;61.97;100325.03;5009810;28;20124;-88
2023/05/15 00:31:18;;;;;;;27.90;18.88;;;17.00;76.90;;;16.35;61.91;100325.03;4999921;28;20042;-88
2023/05/15 00:33:46;;;;;;;25.30;18.25;;;17.00;76.90;;;16.34;62.05;100318.00;4991322;28;20042;-88
2023/05/15 00:36:13;;;;;;;25.42;16.95;;;17.00;76.90;;;16.35;61.86;100324.22;5006947;28;20133;-88
2023/05/15 00:38:40;;;;;;;24.42;16.85;;;16.90;76.80;;;16.32;62.10;100322.81;5007012;28;20463;-88
2023/05/15 00:41:10;;;;;;;24.45;17.13;;;16.90;77.00;;;16.30;62.05;100318.75;5006141;28;20422;-89
2023/05/15 00:43:39;;;;;;;30.15;17.55;;;16.90;77.00;;;16.28;61.92;100313.63;5084412;23;20052;-90
2023/05/15 00:46:07;;;;;;;26.83;17.75;;;16.90;77.00;;;16.27;61.94;100319.28;4964364;28;20100;-88
2023/05/15 00:48:35;;;;;;;24.17;17.05;;;16.80;77.00;;;16.23;62.13;100309.00;4960093;28;20043;-91
2023/05/15 00:51:03;;;;;;;24.70;17.13;;;16.80;77.00;;;16.22;61.96;100306.56;4977753;28;20507;-90
2023/05/15 00:53:30;;;;;;;21.67;16.15;;;16.90;77.00;;;16.20;62.01;100309.53;4968405;28;20059;-90
2023/05/15 00:55:59;;;;;;;24.30;16.60;;;16.80;77.00;;;16.18;62.13;100303.56;4966487;28;20046;-89
2023/05/15 00:58:29;;;;;;;21.75;15.93;;;16.80;77.00;;;16.17;62.04;100311.91;4966647;28;20043;-90
2023/05/15 01:00:57;;;;;;;26.95;17.15;;;16.80;77.00;;;16.14;61.87;100310.50;4966554;28;20149;-90
2023/05/15 01:03:25;;;;;;;24.48;16.52;;;16.70;77.10;;;16.12;61.81;100309.16;4971699;28;20103;-89
2023/05/15 01:05:52;;;;;;;24.27;16.25;;;16.70;77.10;;;16.09;62.07;100294.31;4964813;28;20121;-90
2023/05/15 01:08:26;;;;;;;22.55;16.70;;;16.70;77.20;;;16.07;62.03;100299.16;4969203;28;20126;-90
2023/05/15 01:10:54;;;;;;;24.00;17.80;;;16.70;77.20;;;16.06;62.13;100296.72;4965048;28;20070;-90
2023/05/15 01:13:23;;;;;;;22.00;16.65;;;16.60;77.20;;;16.03;62.21;100294.50;4965587;28;20241;-89
2023/05/15 01:15:50;;;;;;;22.20;16.67;;;16.60;77.30;;;16.00;62.08;100295.81;4961435;28;20047;-90
2023/05/15 01:18:19;;;;;;;24.55;16.92;;;16.60;77.20;;;15.98;61.98;100300.66;4949018;28;20130;-90
2023/05/15 01:21:16;;;;;;;23.52;17.13;;;16.60;77.30;;;15.96;62.25;100298.22;4967080;28;20070;-90
2023/05/15 01:24:03;;;;;;;22.63;16.98;;;16.60;77.50;;;15.94;62.21;100299.50;4969181;28;20066;-90
2023/05/15 01:27:16;;;;;;;24.90;17.58;;;16.50;77.60;;;15.91;62.36;100295.47;4951369;28;20051;-90
2023/05/15 01:29:58;;;;;;;25.20;18.08;;;16.50;77.70;;;15.89;62.45;100294.06;4949658;29;20055;-89
2023/05/15 01:32:46;;;;;;;27.98;18.17;;;16.50;78.00;;;15.87;62.81;100285.47;4932481;29;20047;-89
2023/05/15 01:35:21;;;;;;;25.50;18.02;;;16.50;78.20;;;15.86;62.94;100295.41;4959094;28;20126;-90
2023/05/15 01:37:54;;;;;;;29.27;18.77;;;16.50;78.20;;;15.87;63.07;100296.22;4967865;28;20046;-89
2023/05/15 01:40:26;;;;;;;23.38;17.70;;;16.50;78.30;;;15.85;63.02;100293.75;4951865;28;20054;-89
2023/05/15 01:43:07;;;;;;;28.37;19.03;;;16.40;78.30;;;15.86;63.21;100292.72;4959715;28;20129;-89
2023/05/15 01:45:36;;;;;;;28.10;18.25;;;16.40;78.40;;;15.85;63.24;100290.25;4951593;28;20161;-90
2023/05/15 01:48:08;;;;;;;29.58;19.45;;;16.40;78.40;;;15.85;63.25;100283.00;4944856;28;20459;-90
2023/05/15 01:50:38;;;;;;;25.38;18.02;;;16.40;78.70;;;15.85;63.51;100290.25;4957236;28;20047;-91
2023/05/15 01:53:09;;;;;;;26.70;19.27;;;16.40;78.90;;;15.84;63.95;100278.69;4971486;28;20129;-89
2023/05/15 01:55:38;;;;;;;27.58;18.67;;;16.40;79.30;;;15.83;63.94;100289.72;4972440;28;20895;-90
2023/05/15 01:58:08;;;;;;;24.83;18.45;;;16.40;79.20;;;15.82;64.03;100278.13;4954068;28;20074;-89
2023/05/15 02:00:36;;;;;;;27.60;18.70;;;16.40;79.30;;;15.82;64.21;100283.53;4961013;28;20043;-90
2023/05/15 02:03:05;;;;;;;33.63;21.17;;;16.40;79.40;;;15.82;64.47;100275.44;4951643;28;20500;-88
2023/05/15 02:05:34;;;;;;;31.75;21.02;;;16.40;79.80;;;15.83;64.62;100278.94;4952424;28;20043;-89
2023/05/15 02:08:04;;;;;;;34.38;22.05;;;16.40;79.80;;;15.83;64.52;100277.06;4968234;28;20463;-90
2023/05/15 02:10:32;;;;;;;34.50;22.98;;;16.40;79.90;;;15.83;64.85;100279.75;4969124;28;20050;-90
2023/05/15 02:13:01;;;;;;;33.67;22.20;;;16.40;80.10;;;15.83;64.91;100276.25;4959515;28;20090;-89
2023/05/15 02:15:30;;;;;;;36.53;24.17;;;16.40;80.20;;;15.84;64.97;100276.00;4968969;28;20426;-90
2023/05/15 02:17:57;;;;;;;35.35;23.00;;;16.40;80.20;;;15.85;65.01;100279.50;4966667;28;20124;-90
2023/05/15 02:20:24;;;;;;;35.28;22.83;;;16.40;80.30;;;15.85;64.98;100279.50;4953656;28;20039;-89
2023/05/15 02:22:52;;;;;;;39.08;22.88;;;16.40;80.30;;;15.85;65.12;100276.81;4967632;28;20052;-89
2023/05/15 02:25:26;;;;;;;37.13;23.10;;;16.40;80.40;;;15.85;65.09;100276.81;4956474;28;20137;-90
2023/05/15 02:28:00;;;;;;;35.28;23.17;;;16.40;80.40;;;15.84;65.20;100278.69;4969480;28;20139;-89
2023/05/15 02:30:42;;;;;;;43.92;27.73;;;16.40;80.50;;;15.84;65.41;100286.75;4968292;28;21400;-89
2023/05/15 02:33:22;;;;;;;55.00;32.05;;;16.40;80.80;;;15.84;66.20;100297.50;4951435;28;20047;-90
2023/05/15 02:35:57;;;;;;;67.25;38.13;;;16.40;81.80;;;15.81;66.68;100295.34;4967726;28;20043;-89
2023/05/15 02:38:30;;;;;;;67.07;37.13;;;16.40;82.20;;;15.82;66.91;100296.97;4972268;28;20038;-88
2023/05/15 02:40:57;;;;;;;66.22;35.95;;;16.50;82.00;;;15.83;66.87;100295.91;4959795;28;20102;-88
2023/05/15 02:43:26;;;;;;;83.68;43.15;;;16.50;82.50;;;15.83;67.82;100295.09;4970396;28;20047;-91
2023/05/15 02:45:56;;;;;;;72.07;40.72;;;16.50;83.70;;;15.83;68.14;100311.22;4960872;28;20121;-91
2023/05/15 02:48:24;;;;;;;76.65;40.47;;;16.40;83.50;;;15.82;68.04;100310.41;4971408;28;20126;-89
2023/05/15 02:50:53;;;;;;;86.45;44.72;;;16.50;83.60;;;15.81;68.64;100303.41;4954039;28;20047;-90
2023/05/15 02:53:20;;;;;;;115.50;50.47;;;16.50;83.90;;;15.80;68.51;100296.38;4969618;28;20591;-87
2023/05/15 02:55:48;;;;;;;104.57;47.67;;;16.50;83.80;;;15.82;68.21;100305.03;4974042;28;20093;-90
2023/05/15 02:58:15;;;;;;;102.60;47.47;;;16.50;83.30;;;15.83;67.97;100303.16;4951041;28;20134;-89
2023/05/15 03:00:42;;;;;;;98.18;47.47;;;16.50;83.30;;;15.83;67.67;100312.03;4956404;28;20075;-89
2023/05/15 03:03:11;;;;;;;99.55;47.45;;;16.50;83.30;;;15.84;67.87;100308.28;4956253;28;20035;-88
2023/05/15 03:05:38;;;;;;;94.95;47.00;;;16.50;83.40;;;15.84;67.71;100302.09;4950166;28;20153;-89
2023/05/15 03:08:06;;;;;;;96.00;46.97;;;16.50;83.10;;;15.83;67.75;100298.59;4972548;28;20500;-88
2023/05/15 03:10:33;;;;;;;97.68;48.28;;;16.50;83.10;;;15.83;67.67;100298.59;4969002;28;20077;-89
2023/05/15 03:13:00;;;;;;;87.78;44.63;;;16.50;83.10;;;15.83;67.71;100301.28;4971189;28;20453;-89
2023/05/15 03:15:27;;;;;;;86.07;45.80;;;16.50;83.30;;;15.82;67.75;100294.28;4951992;28;20101;-88
2023/05/15 03:17:54;;;;;;;86.18;43.50;;;16.50;83.10;;;15.83;67.80;100295.91;4968295;28;20042;-88
2023/05/15 03:20:23;;;;;;;77.53;43.55;;;16.50;83.30;;;15.82;68.03;100296.16;4953457;28;20515;-89
2023/05/15 03:22:50;;;;;;;64.18;39.47;;;16.50;83.70;;;15.81;67.61;100300.72;4968972;28;20073;-89
2023/05/15 03:25:18;;;;;;;67.82;39.75;;;16.50;83.40;;;15.80;67.89;100300.94;4953863;28;20138;-89
2023/05/15 03:27:45;;;;;;;67.13;39.30;;;16.40;83.50;;;15.77;68.16;100301.47;4942558;28;20070;-88
2023/05/15 03:30:12;;;;;;;61.35;37.05;;;16.40;83.40;;;15.77;67.84;100298.78;4942449;28;20142;-90
2023/05/15 03:32:40;;;;;;;61.72;37.88;;;16.40;83.20;;;15.77;67.74;100294.22;4965181;28;20109;-89
2023/05/15 03:35:08;;;;;;;64.70;38.83;;;16.40;83.30;;;15.73;67.42;100301.16;4951832;28;20058;-87
2023/05/15 03:37:37;;;;;;;62.35;39.00;;;16.40;82.90;;;15.73;67.12;100300.34;4953190;28;20039;-90
2023/05/15 03:40:06;;;;;;;65.07;38.03;;;16.40;82.70;;;15.75;67.08;100312.44;4969961;28;20085;-89
2023/05/15 03:42:33;;;;;;;73.50;41.38;;;16.40;82.70;;;15.74;66.96;100313.53;4966833;28;20091;-89
2023/05/15 03:45:00;;;;;;;81.07;41.33;;;16.40;82.30;;;15.71;67.01;100311.31;4966552;28;20070;-90
2023/05/15 03:47:28;;;;;;;75.00;41.20;;;16.40;82.80;;;15.69;66.77;100302.69;4951515;28;20039;-89
2023/05/15 03:49:55;;;;;;;70.53;41.63;;;16.40;82.50;;;15.68;66.70;100306.47;4961336;28;20043;-90
2023/05/15 03:52:22;;;;;;;78.28;42.17;;;16.40;82.50;;;15.68;66.53;100314.53;4968542;28;20082;-89
2023/05/15 03:54:50;;;;;;;74.55;41.97;;;16.30;82.20;;;15.67;66.58;100319.09;4959054;28;20059;-87
2023/05/15 03:57:18;;;;;;;72.57;41.50;;;16.30;82.40;;;15.66;66.07;100306.72;4962734;28;20058;-89
2023/05/15 03:59:45;;;;;;;67.70;40.47;;;16.30;82.00;;;15.65;66.14;100306.94;4970207;28;20117;-88
2023/05/15 04:02:13;;;;;;;69.10;39.85;;;16.30;81.80;;;15.64;65.86;100298.06;4963996;28;20053;-89
2023/05/15 04:04:40;;;;;;;79.43;41.42;;;16.30;81.70;;;15.64;65.84;100299.94;4963370;28;20046;-89
2023/05/15 04:07:07;;;;;;;69.35;41.28;;;16.30;82.00;;;15.58;66.08;100301.72;4952398;28;20047;-89
2023/05/15 04:09:34;;;;;;;66.32;39.33;;;16.30;82.10;;;15.58;65.93;100292.84;4956310;28;20466;-89
2023/05/15 04:12:03;;;;;;;62.03;38.40;;;16.30;82.00;;;15.58;66.05;100303.59;4954669;28;20142;-90
2023/05/15 04:14:30;;;;;;;59.80;36.00;;;16.30;82.00;;;15.57;65.76;100294.72;4951438;28;20047;-89
2023/05/15 04:16:57;;;;;;;63.80;36.97;;;16.30;81.80;;;15.58;65.77;100300.91;4963941;28;20534;-89
2023/05/15 04:19:24;;;;;;;61.10;35.67;;;16.20;81.60;;;15.58;65.74;100292.84;4969181;28;20116;-89
2023/05/15 04:21:52;;;;;;;58.53;36.80;;;16.20;81.60;;;15.56;65.48;100293.09;4967829;28;20089;-88
2023/05/15 04:24:19;;;;;;;58.30;36.83;;;16.20;81.40;;;15.58;65.65;100298.22;4968512;28;20047;-89
2023/05/15 04:26:46;;;;;;;55.67;35.13;;;16.20;81.50;;;15.55;65.62;100304.91;4970783;28;20053;-89
2023/05/15 04:29:15;;;;;;;58.50;37.10;;;16.20;81.70;;;15.55;65.74;100290.66;4964221;28;20484;-88
2023/05/15 04:31:42;;;;;;;55.92;36.05;;;16.20;81.60;;;15.56;65.73;100300.34;4950461;28;20500;-90
2023/05/15 04:34:09;;;;;;;58.35;37.22;;;16.20;81.50;;;15.53;65.62;100298.97;4952200;28;20058;-87
2023/05/15 04:36:36;;;;;;;59.88;37.13;;;16.20;81.50;;;15.51;65.49;100302.94;4959364;28;20276;-89
2023/05/15 04:39:04;;;;;;;53.80;37.13;;;16.20;81.50;;;15.49;65.49;100305.91;4970746;28;20043;-94
2023/05/15 04:41:32;;;;;;;63.50;39.33;;;16.20;81.50;;;15.48;65.75;100311.53;4971724;28;20043;-91
2023/05/15 04:43:59;;;;;;;59.30;37.17;;;16.10;81.90;;;15.46;65.62;100309.88;4965482;28;20058;-91
2023/05/15 04:46:28;;;;;;;59.40;38.30;;;16.10;81.70;;;15.43;65.55;100301.53;4971798;28;20046;-90
2023/05/15 04:48:55;;;;;;;61.88;40.35;;;16.10;81.60;;;15.42;65.51;100300.72;4946050;28;20074;-93
2023/05/15 04:51:22;;;;;;;64.88;39.35;;;16.00;81.60;;;15.38;65.36;100299.56;4964467;28;20055;-91
2023/05/15 04:53:49;;;;;;;59.80;39.03;;;16.00;81.40;;;15.41;65.48;100306.31;4963217;28;20118;-92
2023/05/15 04:56:16;;;;;;;60.50;39.88;;;16.00;81.60;;;15.39;65.42;100305.75;4975785;28;20522;-93
2023/05/15 04:58:43;;;;;;;65.85;41.60;;;16.00;81.40;;;15.40;65.46;100297.44;4969557;28;20475;-96
2023/05/15 05:01:10;;;;;;;71.68;45.67;;;16.00;81.60;;;15.41;65.54;100300.94;4963563;28;20511;-94
2023/05/15 05:06:23;;;;;;;89.05;51.22;;;16.00;81.80;;;15.37;65.45;100308.69;4917815;23;20059;-95
2023/05/15 05:08:51;;;;;;;82.35;53.90;;;16.00;81.60;;;15.37;65.55;100297.94;5010468;28;20065;-92
2023/05/15 05:15:32;;;;;;;87.80;54.05;;;16.10;81.70;;;15.35;65.69;100302.75;4991196;28;20185;-93
2023/05/15 05:18:02;;;;;;;94.40;56.80;;;16.00;81.70;;;15.37;65.80;100303.31;4993085;28;20124;-91
2023/05/15 05:20:29;;;;;;;95.53;58.20;;;16.00;81.80;;;15.36;65.70;100301.69;4988561;28;20417;-92
2023/05/15 05:22:58;;;;;;;102.70;61.13;;;16.00;82.00;;;15.36;65.84;100300.88;4990986;28;20034;-94
2023/05/15 05:25:58;;;;;;;114.03;67.55;;;16.00;82.10;;;15.35;65.86;100310.81;4991333;28;20046;-92
2023/05/15 05:28:38;;;;;;;134.82;72.47;;;16.00;82.20;;;15.34;66.39;100303.81;4990883;28;20046;-93
2023/05/15 05:31:05;;;;;;;126.75;69.82;;;16.00;82.70;;;15.26;66.12;100306.91;4986483;28;20448;-92
2023/05/15 05:33:33;;;;;;;127.65;69.90;;;15.90;82.50;;;15.29;66.09;100322.53;4990929;28;20065;-88
2023/05/15 05:36:00;;;;;;;124.95;69.05;;;15.90;82.50;;;15.29;66.04;100306.41;4988860;28;20757;-89
2023/05/15 05:38:29;;;;;;;121.85;66.88;;;15.90;82.30;;;15.27;65.92;100313.09;4989457;28;20076;-94
2023/05/15 05:40:56;;;;;;;123.03;65.40;;;15.90;82.40;;;15.25;66.12;100304.47;4986592;28;20057;-95
2023/05/15 05:43:25;;;;;;;126.82;65.65;;;15.90;82.60;;;15.25;66.11;100310.66;4988219;28;20120;-88
2023/05/15 05:45:52;;;;;;;126.00;65.53;;;15.90;82.50;;;15.29;66.13;100313.66;4988536;28;20053;-90
2023/05/15 05:48:20;;;;;;;131.80;66.75;;;15.90;82.30;;;15.29;66.34;100309.09;4981267;28;20138;-90
2023/05/15 05:50:47;;;;;;;126.78;68.70;;;15.90;82.80;;;15.27;66.61;100318.47;4985254;28;20046;-89
2023/05/15 05:53:15;;;;;;;131.45;69.28;;;15.90;82.90;;;15.27;66.73;100321.97;4986037;28;20046;-89
2023/05/15 05:55:43;;;;;;;136.75;70.15;;;15.90;83.10;;;15.25;66.76;100321.41;4990594;28;20077;-90
2023/05/15 05:58:11;;;;;;;135.45;69.85;;;15.90;83.30;;;15.26;66.72;100319.53;4994945;28;20129;-90
2023/05/15 06:00:38;;;;;;;142.88;72.28;;;15.90;83.00;;;15.26;66.45;100322.22;4986329;28;20121;-87
2023/05/15 06:03:05;;;;;;;144.68;71.55;;;15.90;82.70;;;15.27;66.50;100323.84;4984712;28;20502;-91
2023/05/15 06:05:33;;;;;;;142.38;73.95;;;15.90;83.00;;;15.26;66.59;100325.72;4986513;28;20039;-89
2023/05/15 06:08:02;;;;;;;154.30;75.47;;;15.90;82.80;;;15.28;66.61;100322.78;4987950;28;20054;-89
2023/05/15 06:10:30;;;;;;;145.43;75.07;;;15.90;83.00;;;15.29;66.47;100316.34;4987078;28;20065;-94
2023/05/15 06:12:59;;;;;;;139.70;73.20;;;15.90;82.70;;;15.32;66.48;100322.03;4984809;28;20109;-94
2023/05/15 06:26:10;;;;;;;138.40;71.47;;;16.00;82.90;;;15.31;66.27;100315.03;5007335;28;20060;-94
2023/05/15 06:28:44;;;;;;;141.80;74.50;;;16.00;82.50;;;15.35;66.05;100321.56;4989994;28;20634;-93
2023/05/15 06:31:26;;;;;;;150.80;74.07;;;16.00;82.40;;;15.37;66.37;100318.59;5007740;28;20124;-94
2023/05/15 06:34:06;;;;;;;128.10;66.22;;;16.00;82.90;;;15.33;66.10;100315.63;4983628;28;20042;-93
2023/05/15 06:36:51;;;;;;;128.00;65.93;;;16.00;82.50;;;15.33;65.83;100312.94;4982495;28;20050;-93
2023/05/15 06:39:40;;;;;;;127.80;65.57;;;16.00;82.20;;;15.34;65.89;100325.31;4994636;28;20069;-94
2023/05/15 06:42:39;;;;;;;129.73;68.63;;;16.00;82.10;;;15.38;65.83;100314.88;5003177;28;20038;-94
2023/05/15 06:48:09;;;;;;;135.88;68.25;;;16.00;82.20;;;15.44;65.75;100330.03;4939868;28;20383;-90
2023/05/15 06:50:36;;;;;;;124.90;66.50;;;16.10;82.00;;;15.43;65.75;100334.59;4949609;28;20079;-81
2023/05/15 06:53:03;;;;;;;125.88;67.95;;;16.10;82.10;;;15.38;65.85;100337.19;4936448;28;20063;-90
2023/05/15 06:55:32;;;;;;;124.20;66.65;;;16.00;82.20;;;15.34;65.63;100346.00;4946950;28;20059;-89
2023/05/15 06:58:00;;;;;;;116.72;62.53;;;16.00;82.00;;;15.34;66.00;100346.00;4932508;29;20051;-90
2023/05/15 07:00:27;;;;;;;118.05;65.75;;;16.00;82.30;;;15.36;65.66;100352.72;4930724;29;20118;-91
2023/05/15 07:02:55;;;;;;;109.95;62.25;;;16.00;82.00;;;15.36;65.57;100354.59;4928185;29;20186;-90
2023/05/15 07:05:23;;;;;;;102.90;59.25;;;16.00;82.00;;;15.34;65.26;100352.19;4928074;29;20529;-89
2023/05/15 07:07:51;;;;;;;102.68;59.78;;;16.00;81.70;;;15.34;64.91;100352.19;4919620;29;20052;-92
2023/05/15 07:10:18;;;;;;;105.20;60.70;;;16.00;81.40;;;15.38;64.99;100347.94;4930425;29;20462;-90
2023/05/15 07:12:45;;;;;;;99.10;58.53;;;16.00;81.40;;;15.45;65.05;100343.19;4931225;29;20130;-92
2023/05/15 07:15:12;;;;;;;95.63;56.40;;;16.10;81.40;;;15.50;64.66;100349.72;4930680;29;20040;-91
2023/05/15 07:17:40;;;;;;;89.65;54.53;;;16.10;81.30;;;15.50;64.90;100347.84;4929822;29;20048;-90
2023/05/15 07:20:08;;;;;;;84.10;51.80;;;16.10;81.40;;;15.57;64.29;100350.38;4930851;29;20126;-90
2023/05/15 07:22:37;;;;;;;83.20;51.88;;;16.20;80.80;;;15.60;64.58;100350.66;4929319;29;20154;-91
2023/05/15 07:25:05;;;;;;;80.78;50.88;;;16.20;80.90;;;15.63;64.52;100344.00;4930054;29;20766;-89
2023/05/15 07:27:32;;;;;;;73.70;45.38;;;16.30;81.10;;;15.63;63.54;100344.00;4933170;29;20036;-92
2023/05/15 07:30:00;;;;;;;69.32;43.40;;;16.20;80.00;;;15.62;63.76;100350.44;4933365;29;20079;-89
2023/05/15 07:32:28;;;;;;;61.70;42.65;;;16.20;80.20;;;15.64;63.49;100341.09;4930983;29;20130;-91
2023/05/15 07:34:55;;;;;;;55.95;40.95;;;16.30;80.20;;;15.64;63.53;100341.09;4930744;29;20047;-90
2023/05/15 07:37:22;;;;;;;55.65;37.13;;;16.30;80.20;;;15.67;63.02;100350.53;4930861;29;20147;-92
2023/05/15 07:39:51;;;;;;;48.63;31.40;;;16.30;79.60;;;15.61;62.35;100346.91;4930511;29;20126;-91
2023/05/15 07:42:18;;;;;;;41.83;30.27;;;16.20;78.90;;;15.62;62.31;100345.88;4932813;29;20111;-92
2023/05/15 07:44:45;;;;;;;51.03;32.05;;;16.30;78.90;;;15.65;62.49;100344.59;4933418;29;20059;-92
2023/05/15 07:47:13;;;;;;;46.45;32.08;;;16.30;79.00;;;15.79;63.41;100337.78;4936715;29;20053;-84
2023/05/15 07:49:40;;;;;;;48.95;33.83;;;16.40;80.10;;;15.93;63.16;100336.38;4930836;29;20303;-86
2023/05/15 07:52:07;;;;;;;48.67;33.63;;;16.50;79.80;;;16.07;62.66;100333.31;4924523;29;20040;-87
2023/05/15 07:54:35;;;;;;;48.00;31.42;;;16.60;79.30;;;16.20;62.94;100336.44;4925726;29;20071;-88
2023/05/15 07:57:03;;;;;;;47.38;30.92;;;16.80;79.30;;;16.30;61.19;100329.50;4931280;29;20575;-88
2023/05/15 07:59:31;;;;;;;37.30;28.42;;;16.80;77.90;;;16.44;61.29;100323.47;4932280;29;20083;-88
2023/05/15 08:01:58;;;;;;;37.30;27.15;;;17.00;77.90;;;16.60;61.10;100337.13;4930748;29;20055;-88
2023/05/15 08:04:25;;;;;;;31.40;21.30;;;17.20;77.80;;;16.72;59.31;100332.41;4930474;29;20079;-87
2023/05/15 08:06:52;;;;;;;30.67;21.35;;;17.30;75.80;;;16.81;58.21;100333.56;4931902;29;20127;-87
2023/05/15 08:09:20;;;;;;;31.48;21.60;;;17.40;74.60;;;16.87;56.73;100329.03;4931849;29;20118;-87
2023/05/15 08:11:47;;;;;;;33.55;23.95;;;17.40;72.90;;;16.97;57.91;100327.25;4928782;29;20102;-87
2023/05/15 08:14:15;;;;;;;40.60;27.10;;;17.50;74.10;;;17.09;58.09;100328.97;4930886;29;20103;-87
2023/05/15 08:16:43;;;;;;;40.63;28.05;;;17.60;74.30;;;17.17;58.50;100328.47;4929502;29;20523;-89
2023/05/15 08:19:10;;;;;;;43.33;28.00;;;17.70;74.70;;;17.25;57.67;100325.31;4915107;29;20413;-87
2023/05/15 08:21:38;;;;;;;36.72;24.75;;;17.80;73.70;;;17.33;57.70;100327.53;4930614;29;20115;-82
2023/05/15 08:24:06;;;;;;;29.58;22.08;;;17.90;73.80;;;17.45;57.45;100330.84;4938828;29;20512;-81
2023/05/15 08:26:33;;;;;;;37.53;23.85;;;18.00;73.40;;;17.51;57.61;100318.19;4931314;29;20134;-81
2023/05/15 08:29:00;;;;;;;29.55;23.17;;;18.10;73.50;;;17.56;55.55;100320.09;4930584;29;20580;-82
2023/05/15 08:31:29;;;;;;;34.60;21.20;;;18.10;71.20;;;17.63;56.33;100323.41;4925218;29;20806;-80
2023/05/15 08:33:56;;;;;;;33.05;21.05;;;18.20;72.40;;;17.69;56.16;100317.75;4930003;29;20103;-80
2023/05/15 08:36:23;;;;;;;31.52;23.25;;;18.30;71.90;;;17.74;57.00;100317.81;4931913;29;20051;-81
2023/05/15 08:38:50;;;;;;;35.80;23.00;;;18.30;72.60;;;17.80;56.16;100325.94;4930758;29;20472;-81
2023/05/15 08:41:30;;;;;;;31.58;23.25;;;18.40;71.90;;;17.85;55.31;100325.94;4930732;29;20047;-80
2023/05/15 08:43:58;;;;;;;36.47;26.48;;;18.50;71.10;;;17.87;55.76;100323.81;4931090;29;20050;-80
2023/05/15 08:46:27;;;;;;;34.92;25.55;;;18.50;71.20;;;17.84;54.76;100318.94;4929612;29;20046;-80
2023/05/15 08:48:58;;;;;;;41.92;24.50;;;18.50;70.50;;;17.91;56.44;100325.72;4931766;29;20115;-80
2023/05/15 08:51:25;;;;;;;38.78;23.15;;;18.60;72.10;;;17.99;56.44;100319.00;4928942;29;20814;-80
2023/05/15 08:53:53;;;;;;;27.55;20.42;;;18.60;71.50;;;18.07;56.04;100317.69;4912277;29;20147;-80
2023/05/15 08:56:20;;;;;;;28.67;20.27;;;18.70;71.40;;;18.11;54.96;100316.09;4931202;29;20075;-80
2023/05/15 08:58:48;;;;;;;30.23;18.80;;;18.70;70.30;;;18.14;54.77;100318.25;4930115;29;20044;-80
2023/05/15 09:01:16;;;;;;;23.38;18.15;;;18.80;69.90;;;18.18;54.18;100308.53;4926263;29;20052;-80
2023/05/15 09:03:43;;;;;;;27.45;18.02;;;18.80;69.60;;;18.22;54.67;100307.75;4927853;29;20122;-80
2023/05/15 09:06:12;;;;;;;28.05;17.70;;;18.80;69.90;;;18.24;53.67;100304.78;4930555;29;20061;-80
2023/05/15 09:08:42;;;;;;;28.30;18.25;;;18.90;68.70;;;18.27;53.76;100301.56;4926824;29;20469;-80
2023/05/15 09:11:11;;;;;;;25.08;16.73;;;18.90;68.70;;;18.27;54.23;100315.06;4927179;29;20071;-80
2023/05/15 09:13:38;;;;;;;29.23;18.73;;;19.00;69.50;;;18.27;53.42;100307.75;4928728;29;20548;-80
2023/05/15 09:16:07;;;;;;;27.98;20.02;;;19.00;68.70;;;18.29;53.20;100307.50;4929516;29;20067;-80
2023/05/15 09:18:34;;;;;;;32.72;21.73;;;19.00;68.00;;;18.30;53.13;100311.00;4922700;29;20039;-79
2023/05/15 09:21:24;;;;;;;38.78;21.58;;;19.00;67.90;;;18.30;53.50;100309.13;4927338;29;20056;-84
2023/05/15 09:23:51;;;;;;;28.02;18.98;;;19.00;68.30;;;18.32;53.07;100309.66;4928405;29;20052;-83
2023/05/15 09:26:18;;;;;;;29.05;17.63;;;19.00;67.70;;;18.33;54.15;100316.69;4929368;29;20103;-82
2023/05/15 09:28:46;;;;;;;33.03;17.85;;;19.00;68.80;;;18.34;52.85;100317.50;4928248;29;20043;-82
2023/05/15 09:31:14;;;;;;;25.92;18.65;;;19.00;67.50;;;18.37;54.47;100306.16;4928108;29;20559;-83
2023/05/15 09:33:42;;;;;;;42.70;23.30;;;19.10;69.40;;;18.38;55.25;100314.00;4930313;29;20075;-82
2023/05/15 09:36:10;;;;;;;40.25;23.27;;;19.10;69.90;;;18.41;54.37;100308.06;4912428;29;20043;-81
2023/05/15 09:38:46;;;;;;;29.23;17.77;;;19.10;69.10;;;18.46;53.96;100318.88;4926768;29;20510;-82
2023/05/15 09:41:14;;;;;;;23.65;15.65;;;19.20;68.30;;;18.51;55.26;100318.88;4923648;29;20046;-85
2023/05/15 09:43:41;;;;;;;23.00;15.80;;;19.20;70.10;;;18.56;53.32;100306.47;4923888;28;20048;-84
2023/05/15 09:46:11;;;;;;;24.33;14.27;;;19.20;67.90;;;18.61;53.33;100303.78;4929127;29;20465;-84
2023/05/15 09:48:39;;;;;;;24.20;15.30;;;19.30;68.20;;;18.63;52.56;100309.72;4929811;29;20043;-87
2023/05/15 09:51:15;;;;;;;25.92;14.88;;;19.30;67.00;;;18.68;52.26;100315.13;4929869;29;20512;-86
2023/05/15 09:53:47;;;;;;;31.13;14.82;;;19.40;66.80;;;18.72;51.25;100308.13;4921846;29;20047;-86
2023/05/15 09:56:15;;;;;;;18.33;12.82;;;19.40;65.10;;;18.71;51.42;100296.53;4923944;29;20054;-89
2023/05/15 09:58:53;;;;;;;25.52;11.50;;;19.40;65.40;;;18.76;51.00;100306.53;4923895;29;20043;-87
2023/05/15 10:01:21;;;;;;;22.20;12.50;;;19.40;65.10;;;18.81;50.51;100293.00;4929343;29;20059;-91
2023/05/15 10:03:58;;;;;;;22.85;12.65;;;19.50;64.40;;;18.82;48.68;100293.81;4927394;29;20050;-90
2023/05/15 10:06:25;;;;;;;30.23;16.08;;;19.50;62.30;;;18.87;49.91;100289.22;4926111;29;20083;-95
2023/05/15 10:08:56;;;;;;;23.83;15.05;;;19.60;63.70;;;18.89;50.55;100291.69;4939727;28;20055;-85
2023/05/15 10:11:26;;;;;;;21.85;15.27;;;19.60;64.60;;;18.83;49.89;100298.94;4933258;29;20116;-90
2023/05/15 10:13:56;;;;;;;19.80;12.55;;;19.50;63.70;;;18.83;48.37;100298.94;4930723;28;20047;-95
2023/05/15 10:16:24;;;;;;;15.03;11.77;;;19.60;61.70;;;18.81;48.17;100289.50;4940996;29;20135;-96
2023/05/15 10:18:52;;;;;;;21.63;11.75;;;19.50;61.20;;;18.86;48.83;100290.31;4937599;29;20079;-91
2023/05/15 10:21:21;;;;;;;16.17;10.98;;;19.60;62.20;;;18.89;48.56;100289.78;4934149;29;20126;-90
2023/05/15 10:23:50;;;;;;;14.35;10.38;;;19.60;61.60;;;18.91;47.20;100290.31;4932578;29;20051;-87
2023/05/15 10:26:28;;;;;;;16.92;10.52;;;19.60;59.80;;;18.93;47.22;100288.13;4933847;29;20135;-90
2023/05/15 10:28:57;;;;;;;15.13;9.65;;;19.60;60.20;;;18.96;47.58;100286.78;4933898;29;20046;-81